Time;durP1;ratioP1;P1;durP2;ratioP2;P2;SDS_P1;SDS_P2;PMS_P1;PMS_P2;Temp;Humidity;BMP_temperature;BMP_pressure;BME280_temperature;BME280_humidity;BME280_pressure;Samples;Min_cycle;Max_cycle;Signal;HPM_P1;HPM_P2
2021/03/21 00:01:51;;;;;;;0.70;0.60;;;20.20;20.40;;;;;;5095185;28;20169;-52
2021/03/21 00:04:19;;;;;;;0.93;0.80;;;20.20;20.90;;;;;;5094877;28;20162;-51
2021/03/21 00:06:45;;;;;;;1.50;1.10;;;20.20;20.40;;;;;;5093329;28;20185;-52
2021/03/21 00:09:12;;;;;;;0.88;0.80;;;20.20;20.40;;;;;;5094963;28;20209;-52
2021/03/21 00:11:39;;;;;;;1.00;0.90;;;20.20;20.40;;;;;;5095160;28;20142;-52
2021/03/21 00:14:07;;;;;;;0.95;0.95;;;20.20;20.40;;;;;;5094424;28;20158;-52
2021/03/21 00:16:35;;;;;;;1.40;1.30;;;20.20;20.40;;;;;;5094943;28;20229;-52
2021/03/21 00:19:02;;;;;;;0.93;0.88;;;20.20;20.90;;;;;;5094807;28;20249;-52
2021/03/21 00:21:27;;;;;;;1.08;0.90;;;20.20;20.40;;;;;;5094740;28;20597;-52
2021/03/21 00:23:53;;;;;;;1.43;0.90;;;20.20;20.40;;;;;;5093342;28;20176;-51
2021/03/21 00:26:22;;;;;;;1.33;1.13;;;20.20;20.80;;;;;;5094606;28;20213;-52
2021/03/21 00:28:59;;;;;;;1.23;1.13;;;20.10;20.30;;;;;;5094709;28;20194;-51
2021/03/21 00:31:24;;;;;;;6.45;1.25;;;20.20;20.40;;;;;;5094550;28;20604;-52
2021/03/21 00:33:50;;;;;;;1.10;0.90;;;20.20;20.40;;;;;;5093233;28;20158;-51
2021/03/21 00:36:16;;;;;;;0.83;0.80;;;20.20;20.40;;;;;;5094361;28;20162;-51
2021/03/21 00:38:45;;;;;;;1.70;1.10;;;20.20;20.40;;;;;;5094604;28;20166;-52
2021/03/21 00:41:15;;;;;;;1.20;1.10;;;20.20;20.40;;;;;;5094410;28;20375;-51
2021/03/21 00:43:41;;;;;;;1.20;1.05;;;20.10;20.30;;;;;;5094043;28;20169;-51
2021/03/21 00:46:07;;;;;;;1.03;0.93;;;20.10;20.30;;;;;;5093898;28;20162;-52
2021/03/21 00:48:40;;;;;;;1.20;1.00;;;20.10;20.30;;;;;;5094099;28;20201;-51
2021/03/21 00:51:10;;;;;;;1.15;0.95;;;20.10;20.40;;;;;;5092469;28;20186;-51
2021/03/21 00:53:36;;;;;;;1.08;0.75;;;20.10;20.40;;;;;;5094015;28;20176;-52
2021/03/21 00:56:02;;;;;;;1.00;0.87;;;20.10;20.30;;;;;;5092860;28;20524;-51
2021/03/21 00:58:29;;;;;;;0.90;0.80;;;20.10;20.30;;;;;;5094088;28;20189;-52
2021/03/21 01:00:59;;;;;;;1.05;0.90;;;20.10;20.30;;;;;;5088871;28;20207;-52
2021/03/21 01:03:28;;;;;;;1.42;1.10;;;20.10;20.30;;;;;;5093767;28;20286;-52
2021/03/21 01:06:02;;;;;;;1.30;1.20;;;20.10;20.30;;;;;;5092433;28;20628;-51
2021/03/21 01:08:28;;;;;;;1.38;1.27;;;20.10;20.30;;;;;;5093730;28;20714;-52
2021/03/21 01:11:01;;;;;;;1.30;1.10;;;20.10;20.30;;;;;;5092490;28;20543;-52
2021/03/21 01:13:27;;;;;;;1.08;0.90;;;20.10;20.30;;;;;;5093794;28;20157;-51
2021/03/21 01:15:54;;;;;;;1.15;0.88;;;20.20;20.40;;;;;;5093226;28;20564;-51
2021/03/21 01:18:25;;;;;;;1.23;1.00;;;20.10;20.30;;;;;;5093655;28;20166;-52
2021/03/21 01:20:52;;;;;;;1.05;0.95;;;20.10;20.30;;;;;;5093611;28;20161;-51
2021/03/21 01:23:18;;;;;;;1.65;1.20;;;20.10;20.30;;;;;;5093706;28;20569;-52
2021/03/21 01:25:44;;;;;;;1.45;0.95;;;20.10;20.30;;;;;;5093438;28;20180;-52
2021/03/21 01:28:30;;;;;;;0.85;0.85;;;20.10;20.30;;;;;;5093652;28;20198;-52
2021/03/21 01:31:00;;;;;;;1.00;0.80;;;20.10;20.30;;;;;;5093012;28;20157;-51
2021/03/21 01:33:27;;;;;;;0.93;0.88;;;20.10;20.30;;;;;;5093466;28;20601;-51
2021/03/21 01:35:54;;;;;;;1.27;1.17;;;20.10;20.30;;;;;;5093329;28;20150;-52
2021/03/21 01:38:26;;;;;;;1.50;1.40;;;20.10;20.30;;;;;;5093557;28;20166;-52
2021/03/21 01:40:58;;;;;;;1.10;1.00;;;20.10;20.30;;;;;;5093334;28;20162;-51
2021/03/21 01:43:42;;;;;;;1.08;0.98;;;20.10;20.30;;;;;;5093453;28;20165;-53
2021/03/21 01:46:18;;;;;;;1.00;0.90;;;20.10;20.30;;;;;;5092962;28;20154;-52
2021/03/21 01:48:57;;;;;;;1.02;0.90;;;20.10;20.30;;;;;;5091817;28;20188;-52
2021/03/21 01:51:29;;;;;;;0.82;0.80;;;20.10;20.30;;;;;;5093361;28;20154;-51
2021/03/21 01:53:57;;;;;;;1.10;1.00;;;20.10;20.30;;;;;;5093042;28;20168;-52
2021/03/21 01:56:26;;;;;;;1.00;0.90;;;20.10;20.30;;;;;;5092456;28;20238;-52
2021/03/21 01:59:11;;;;;;;1.08;0.98;;;20.10;20.30;;;;;;5092928;28;20500;-52
2021/03/21 02:01:37;;;;;;;1.45;1.35;;;20.10;20.30;;;;;;5092042;28;20173;-52
2021/03/21 02:04:04;;;;;;;0.90;0.90;;;20.10;20.30;;;;;;5092903;28;20490;-52
2021/03/21 02:06:36;;;;;;;1.10;1.00;;;20.10;20.30;;;;;;5093146;28;20399;-52
2021/03/21 02:09:18;;;;;;;1.10;0.90;;;20.10;20.30;;;;;;5092897;28;20264;-51
2021/03/21 02:12:02;;;;;;;1.20;1.05;;;20.10;20.30;;;;;;5091818;28;20184;-52
2021/03/21 02:14:36;;;;;;;0.93;0.80;;;20.00;20.20;;;;;;5092556;28;20490;-51
2021/03/21 02:17:11;;;;;;;1.23;1.02;;;20.10;20.30;;;;;;5093023;28;20164;-52
2021/03/21 02:19:59;;;;;;;1.02;0.77;;;20.00;20.20;;;;;;5092981;28;20203;-52
2021/03/21 02:22:31;;;;;;;1.02;0.90;;;20.10;20.30;;;;;;5082059;28;20256;-52
2021/03/21 02:25:26;;;;;;;1.40;1.20;;;20.10;20.30;;;;;;5092997;28;20154;-52
2021/03/21 02:28:06;;;;;;;1.10;1.00;;;20.10;20.30;;;;;;5092695;28;20217;-52
2021/03/21 02:30:44;;;;;;;0.77;0.75;;;20.10;20.30;;;;;;5092299;28;20162;-52
2021/03/21 02:33:24;;;;;;;1.23;1.05;;;20.10;20.30;;;;;;5092967;28;20157;-52
2021/03/21 02:35:59;;;;;;;1.20;1.10;;;20.10;20.30;;;;;;5092815;28;20154;-52
2021/03/21 02:38:44;;;;;;;1.17;1.08;;;20.00;20.20;;;;;;5092993;28;20145;-52
2021/03/21 02:41:17;;;;;;;1.17;0.80;;;20.10;20.30;;;;;;5092777;28;20158;-52
2021/03/21 02:43:51;;;;;;;1.40;1.30;;;20.10;20.30;;;;;;5091515;28;20584;-51
2021/03/21 02:46:30;;;;;;;1.10;0.90;;;20.10;20.30;;;;;;5092713;28;20505;-52
2021/03/21 02:49:02;;;;;;;0.90;0.80;;;20.00;20.20;;;;;;5092604;28;20182;-52
2021/03/21 02:51:33;;;;;;;0.88;0.88;;;20.00;20.20;;;;;;5092809;28;20539;-51
2021/03/21 02:54:25;;;;;;;0.70;0.68;;;20.10;20.30;;;;;;5092411;28;20237;-51
2021/03/21 02:57:08;;;;;;;1.02;0.88;;;20.10;20.50;;;;;;5092869;28;20146;-52
2021/03/21 02:59:41;;;;;;;1.08;0.98;;;20.10;20.30;;;;;;5091967;28;20536;-52
2021/03/21 03:02:14;;;;;;;0.70;0.70;;;20.00;20.20;;;;;;5092892;28;20610;-52
2021/03/21 03:04:47;;;;;;;0.88;0.88;;;20.10;20.30;;;;;;5092599;28;20150;-52
2021/03/21 03:07:36;;;;;;;1.35;1.25;;;20.10;20.30;;;;;;5093984;28;20201;-52
2021/03/21 03:10:30;;;;;;;1.30;1.17;;;20.00;20.20;;;;;;5096114;28;20683;-52
2021/03/21 03:13:31;;;;;;;1.00;0.90;;;20.10;20.30;;;;;;5088102;28;20256;-52
2021/03/21 03:16:05;;;;;;;1.05;0.80;;;20.00;20.20;;;;;;5093774;28;20178;-51
2021/03/21 03:18:40;;;;;;;1.17;1.00;;;20.00;20.20;;;;;;5096043;28;20244;-52
2021/03/21 03:21:21;;;;;;;1.35;1.13;;;20.00;20.20;;;;;;5095930;28;20161;-52
2021/03/21 03:23:56;;;;;;;1.10;1.00;;;20.00;20.20;;;;;;5096056;28;20153;-51
2021/03/21 03:26:41;;;;;;;1.15;0.63;;;20.00;20.20;;;;;;5095906;28;20244;-52
2021/03/21 03:29:40;;;;;;;1.20;1.10;;;20.00;20.20;;;;;;5095200;28;20185;-52
2021/03/21 03:32:14;;;;;;;1.15;1.00;;;20.00;20.20;;;;;;5071447;28;20185;-52
2021/03/21 03:34:46;;;;;;;1.25;0.93;;;20.00;20.20;;;;;;5095752;28;20157;-52
2021/03/21 03:37:13;;;;;;;1.05;0.82;;;20.00;20.20;;;;;;5095764;28;20160;-51
2021/03/21 03:39:41;;;;;;;0.80;0.80;;;20.00;20.40;;;;;;5095709;28;20157;-52
2021/03/21 03:42:43;;;;;;;1.05;0.80;;;20.00;20.20;;;;;;5095681;28;20485;-51
2021/03/21 03:45:26;;;;;;;1.02;0.90;;;20.00;20.20;;;;;;5061020;28;20181;-52
2021/03/21 03:48:04;;;;;;;1.27;1.17;;;20.00;20.20;;;;;;5094215;28;20481;-52
2021/03/21 03:50:54;;;;;;;1.40;1.00;;;20.00;20.20;;;;;;5095266;28;20161;-52
2021/03/21 03:53:23;;;;;;;1.20;1.05;;;20.00;20.20;;;;;;5094324;28;20639;-51
2021/03/21 03:56:12;;;;;;;1.00;0.88;;;20.00;20.20;;;;;;5095174;28;20157;-51
2021/03/21 03:59:00;;;;;;;1.00;0.90;;;20.00;20.20;;;;;;5095142;28;20146;-53
2021/03/21 04:02:06;;;;;;;1.10;1.00;;;20.00;20.20;;;;;;5095051;28;20162;-52
2021/03/21 04:04:55;;;;;;;3.70;1.30;;;20.00;20.20;;;;;;5032517;28;20570;-52
2021/03/21 04:07:39;;;;;;;1.13;0.98;;;20.00;20.20;;;;;;5032705;28;20163;-51
2021/03/21 04:10:27;;;;;;;1.02;0.80;;;20.00;20.20;;;;;;5079895;28;20220;-52
2021/03/21 04:13:27;;;;;;;1.00;0.90;;;20.00;20.20;;;;;;5095082;28;20604;-52
2021/03/21 04:15:56;;;;;;;0.90;0.90;;;20.00;20.20;;;;;;5094404;28;20612;-51
2021/03/21 04:18:38;;;;;;;1.02;0.93;;;20.00;20.20;;;;;;5092682;28;20162;-52
2021/03/21 04:21:13;;;;;;;0.77;0.77;;;20.00;20.20;;;;;;5094847;28;20183;-52
2021/03/21 04:23:52;;;;;;;0.90;0.90;;;20.00;20.20;;;;;;5094817;28;20153;-52
2021/03/21 04:26:38;;;;;;;1.27;1.00;;;20.00;20.20;;;;;;5094384;28;20548;-51
2021/03/21 04:29:16;;;;;;;1.00;0.90;;;20.00;20.20;;;;;;5094035;28;20655;-51
2021/03/21 04:31:42;;;;;;;0.93;0.82;;;20.00;20.20;;;;;;5094782;28;20185;-51
2021/03/21 04:34:10;;;;;;;0.80;0.75;;;20.00;20.20;;;;;;5094344;28;20154;-52
2021/03/21 04:36:42;;;;;;;0.88;0.82;;;20.00;20.20;;;;;;5094722;28;20249;-53
2021/03/21 04:39:14;;;;;;;1.05;0.95;;;20.00;20.20;;;;;;5094396;28;20150;-52
2021/03/21 04:41:56;;;;;;;0.80;0.80;;;20.00;20.20;;;;;;5094572;28;20157;-51
2021/03/21 04:44:38;;;;;;;0.80;0.80;;;20.00;20.20;;;;;;5093879;28;20169;-52
2021/03/21 04:47:15;;;;;;;1.10;1.00;;;19.90;20.20;;;;;;5094477;28;20154;-52
2021/03/21 04:49:41;;;;;;;1.10;0.90;;;19.90;20.20;;;;;;5092829;28;20276;-51
2021/03/21 04:52:20;;;;;;;0.70;0.70;;;20.00;20.20;;;;;;5094142;28;20178;-52
2021/03/21 04:54:48;;;;;;;1.15;1.05;;;19.90;20.20;;;;;;5094086;28;20149;-52
2021/03/21 04:57:35;;;;;;;0.70;0.70;;;19.90;20.20;;;;;;5094299;28;20173;-52
2021/03/21 05:00:04;;;;;;;0.70;0.70;;;19.90;20.20;;;;;;5093556;28;20204;-52
2021/03/21 05:02:33;;;;;;;1.00;0.90;;;20.00;20.20;;;;;;5093895;28;20177;-51
2021/03/21 05:05:05;;;;;;;1.00;0.93;;;19.90;20.20;;;;;;5093790;28;20249;-52
2021/03/21 05:07:52;;;;;;;1.17;1.08;;;20.00;20.20;;;;;;5094083;28;20172;-52
2021/03/21 05:10:31;;;;;;;1.70;1.30;;;19.90;20.20;;;;;;5093252;28;20193;-52
2021/03/21 05:13:27;;;;;;;0.80;0.80;;;19.90;20.20;;;;;;5075265;28;20549;-52
2021/03/21 05:16:03;;;;;;;1.02;0.93;;;20.00;20.30;;;;;;5069928;28;20212;-51
2021/03/21 05:18:38;;;;;;;0.85;0.82;;;19.90;20.20;;;;;;5073627;28;20190;-52
2021/03/21 05:21:37;;;;;;;1.00;0.90;;;19.90;20.20;;;;;;5073550;28;20154;-51
2021/03/21 05:24:19;;;;;;;1.08;0.90;;;19.90;20.20;;;;;;5073529;28;20151;-52
2021/03/21 05:27:05;;;;;;;0.85;0.82;;;19.90;20.20;;;;;;5073286;28;20252;-52
2021/03/21 05:29:58;;;;;;;1.40;0.90;;;19.90;20.20;;;;;;5072801;28;20212;-52
2021/03/21 05:32:24;;;;;;;1.33;1.10;;;19.90;20.20;;;;;;5073354;28;20152;-52
2021/03/21 05:34:53;;;;;;;1.00;0.88;;;19.90;20.20;;;;;;5073291;28;20162;-52
2021/03/21 05:37:30;;;;;;;1.17;0.93;;;19.90;20.20;;;;;;5073382;28;20207;-52
2021/03/21 05:40:02;;;;;;;0.80;0.80;;;19.90;20.20;;;;;;5073082;28;20263;-52
2021/03/21 05:42:47;;;;;;;1.00;0.90;;;19.90;20.20;;;;;;5073339;28;20237;-52
2021/03/21 05:45:49;;;;;;;1.10;0.93;;;19.90;20.20;;;;;;5072711;28;20165;-52
2021/03/21 05:48:24;;;;;;;1.08;1.00;;;19.90;20.20;;;;;;5073068;28;20213;-52
2021/03/21 05:51:26;;;;;;;0.93;0.73;;;19.90;20.20;;;;;;5072977;28;20154;-51
2021/03/21 05:54:40;;;;;;;1.40;0.85;;;19.90;20.20;;;;;;5072736;28;20158;-52
2021/03/21 05:57:24;;;;;;;0.90;0.77;;;19.90;20.20;;;;;;5073127;28;20154;-52
2021/03/21 06:00:18;;;;;;;1.17;1.08;;;19.90;20.20;;;;;;5072639;28;20163;-52
2021/03/21 06:03:22;;;;;;;1.50;1.00;;;19.90;20.20;;;;;;5088915;28;20197;-52
2021/03/21 06:06:10;;;;;;;1.10;0.90;;;19.90;20.20;;;;;;5091672;28;20260;-52
2021/03/21 06:08:54;;;;;;;1.70;1.20;;;19.90;20.20;;;;;;5093297;28;20190;-51
2021/03/21 06:11:40;;;;;;;1.00;0.75;;;19.90;20.20;;;;;;5093205;28;20154;-52
2021/03/21 06:15:03;;;;;;;1.20;1.10;;;19.90;20.20;;;;;;5092662;28;20190;-51
2021/03/21 06:17:49;;;;;;;0.88;0.85;;;19.90;20.20;;;;;;5011126;28;20263;-51
2021/03/21 06:20:52;;;;;;;0.90;0.75;;;19.90;20.20;;;;;;5010892;28;20184;-52
2021/03/21 06:23:50;;;;;;;0.95;0.80;;;19.90;20.20;;;;;;5091558;28;20177;-52
2021/03/21 06:26:42;;;;;;;0.80;0.80;;;19.90;20.20;;;;;;5093065;28;20342;-52
2021/03/21 06:29:40;;;;;;;1.10;1.00;;;19.90;20.20;;;;;;5092459;28;20217;-52
2021/03/21 06:32:21;;;;;;;0.70;0.70;;;19.90;20.20;;;;;;5048169;28;20186;-51
2021/03/21 06:35:04;;;;;;;1.02;0.93;;;19.90;20.20;;;;;;5091514;28;20170;-52
2021/03/21 06:37:51;;;;;;;0.80;0.70;;;19.90;20.20;;;;;;5092946;28;20161;-52
2021/03/21 06:40:28;;;;;;;1.45;1.08;;;19.90;20.20;;;;;;5092815;28;20161;-53
2021/03/21 06:43:21;;;;;;;1.10;0.90;;;19.90;20.20;;;;;;5094111;28;20244;-52
2021/03/21 06:45:55;;;;;;;1.00;0.90;;;19.90;20.20;;;;;;5096371;28;20162;-52
2021/03/21 06:48:42;;;;;;;1.48;0.98;;;19.90;20.20;;;;;;5096573;28;20184;-52
2021/03/21 06:51:34;;;;;;;1.10;1.00;;;19.90;20.20;;;;;;5096490;28;20454;-52
2021/03/21 06:54:14;;;;;;;1.25;0.95;;;19.90;20.20;;;;;;5081837;28;20185;-51
2021/03/21 06:56:59;;;;;;;1.00;0.90;;;19.90;20.20;;;;;;5096721;28;20142;-52
2021/03/21 06:59:39;;;;;;;1.00;0.90;;;19.90;20.20;;;;;;5095843;28;20623;-51
2021/03/21 07:02:29;;;;;;;1.02;0.90;;;19.90;20.20;;;;;;5096257;28;20188;-52
2021/03/21 07:05:22;;;;;;;0.80;0.80;;;19.90;20.20;;;;;;5096215;28;20195;-52
2021/03/21 07:07:54;;;;;;;1.35;1.00;;;19.90;20.20;;;;;;5096401;28;20154;-51
2021/03/21 07:10:56;;;;;;;1.00;0.90;;;19.90;20.20;;;;;;5096149;28;20150;-52
2021/03/21 07:13:46;;;;;;;1.00;0.90;;;19.90;20.20;;;;;;5096182;28;20150;-51
2021/03/21 07:16:53;;;;;;;0.73;0.73;;;19.90;20.20;;;;;;5095536;28;20193;-51
2021/03/21 07:19:52;;;;;;;1.10;0.90;;;19.90;20.20;;;;;;5095939;28;20205;-52
2021/03/21 07:22:27;;;;;;;1.30;1.02;;;19.90;20.20;;;;;;5095944;28;20158;-51
2021/03/21 07:25:04;;;;;;;0.95;0.93;;;19.90;20.20;;;;;;5096045;28;20260;-51
2021/03/21 07:27:53;;;;;;;1.33;1.10;;;19.90;20.20;;;;;;5094408;28;20307;-52
2021/03/21 07:30:33;;;;;;;0.80;0.80;;;19.90;20.20;;;;;;5095404;28;20166;-52
2021/03/21 07:33:21;;;;;;;0.98;0.80;;;19.90;20.20;;;;;;5095891;28;20153;-52
2021/03/21 07:36:14;;;;;;;0.90;0.80;;;19.90;20.20;;;;;;5095803;28;20207;-52
2021/03/21 07:38:49;;;;;;;1.85;0.95;;;19.90;20.20;;;;;;5095859;28;20145;-52
2021/03/21 07:41:37;;;;;;;0.80;0.80;;;19.90;20.20;;;;;;5095639;28;20184;-52
2021/03/21 07:44:47;;;;;;;1.17;1.08;;;19.90;20.20;;;;;;5095088;28;20214;-51
2021/03/21 07:47:24;;;;;;;0.90;0.90;;;19.90;20.20;;;;;;5057791;28;20220;-52
2021/03/21 07:49:50;;;;;;;1.10;1.00;;;19.90;20.20;;;;;;5095242;28;20621;-52
2021/03/21 07:52:34;;;;;;;1.43;1.00;;;19.90;20.20;;;;;;5095395;28;20150;-52
2021/03/21 07:55:09;;;;;;;0.80;0.73;;;20.00;20.20;;;;;;5094201;28;20678;-51
2021/03/21 07:58:06;;;;;;;1.00;0.90;;;19.90;20.20;;;;;;5095293;28;20653;-51
2021/03/21 08:00:32;;;;;;;1.27;1.10;;;20.00;20.20;;;;;;5094662;28;20165;-51
2021/03/21 08:03:22;;;;;;;1.00;0.90;;;19.90;20.20;;;;;;5095262;28;20181;-52
2021/03/21 08:05:53;;;;;;;0.90;0.70;;;20.00;20.20;;;;;;5095105;28;20374;-52
2021/03/21 08:08:25;;;;;;;1.20;1.00;;;20.00;20.20;;;;;;5093710;28;20224;-52
2021/03/21 08:10:56;;;;;;;0.88;0.88;;;20.00;20.20;;;;;;5095014;28;20536;-51
2021/03/21 08:13:47;;;;;;;1.02;0.80;;;18.70;19.30;;;;;;5095015;28;20620;-52
2021/03/21 08:16:16;;;;;;;0.98;0.88;;;20.00;20.20;;;;;;5094486;28;20173;-52
2021/03/21 08:18:46;;;;;;;0.90;0.75;;;20.00;20.20;;;;;;5094912;28;20162;-51
2021/03/21 08:21:25;;;;;;;1.00;0.90;;;20.00;20.30;;;;;;5093488;28;20162;-52
2021/03/21 08:23:55;;;;;;;0.95;0.88;;;20.00;20.20;;;;;;5094669;28;20198;-52
2021/03/21 08:26:33;;;;;;;1.25;0.90;;;20.00;20.20;;;;;;5094671;28;20342;-52
2021/03/21 08:29:04;;;;;;;0.80;0.80;;;20.00;20.80;;;;;;5094254;28;20189;-52
2021/03/21 08:32:10;;;;;;;1.15;0.95;;;20.00;20.20;;;;;;5094680;28;20158;-52
2021/03/21 08:34:39;;;;;;;1.20;1.10;;;20.10;20.30;;;;;;5093266;28;20186;-51
2021/03/21 08:37:27;;;;;;;1.05;0.90;;;20.10;20.30;;;;;;5094782;28;20153;-52
2021/03/21 08:40:23;;;;;;;1.13;1.02;;;20.10;20.30;;;;;;5094404;28;20171;-52
2021/03/21 08:43:07;;;;;;;1.05;0.95;;;20.10;20.30;;;;;;5064942;28;20272;-51
2021/03/21 08:45:40;;;;;;;1.00;0.90;;;20.10;20.30;;;;;;5093903;28;20161;-52
2021/03/21 08:48:32;;;;;;;1.00;0.90;;;20.10;20.30;;;;;;5094115;28;20146;-52
2021/03/21 08:51:03;;;;;;;1.17;1.08;;;20.10;20.30;;;;;;5094361;28;20175;-51
2021/03/21 08:53:41;;;;;;;1.00;0.90;;;20.10;20.30;;;;;;5092782;28;20659;-51
2021/03/21 08:56:18;;;;;;;0.90;0.85;;;20.10;20.30;;;;;;5093887;28;20608;-52
2021/03/21 08:58:47;;;;;;;1.00;0.90;;;20.10;20.30;;;;;;5094127;28;20461;-52
2021/03/21 09:01:25;;;;;;;0.65;0.65;;;20.10;20.30;;;;;;5093543;28;20264;-52
2021/03/21 09:04:07;;;;;;;1.08;0.98;;;20.10;20.30;;;;;;5093930;28;20627;-52
2021/03/21 09:06:40;;;;;;;2.45;0.85;;;20.10;20.30;;;;;;5093862;28;20176;-52
2021/03/21 09:09:27;;;;;;;0.95;0.95;;;20.20;20.40;;;;;;5093795;28;20181;-52
2021/03/21 09:11:59;;;;;;;1.00;0.82;;;20.10;20.30;;;;;;5094032;28;20150;-51
2021/03/21 09:14:32;;;;;;;0.90;0.80;;;20.20;20.30;;;;;;5093256;28;20142;-51
2021/03/21 09:17:03;;;;;;;1.27;0.70;;;20.10;20.80;;;;;;5093822;28;20146;-51
2021/03/21 09:19:34;;;;;;;0.90;0.90;;;20.10;20.30;;;;;;5093628;28;20509;-52
2021/03/21 09:22:04;;;;;;;0.98;0.98;;;20.20;20.30;;;;;;5093687;28;20263;-52
2021/03/21 09:24:33;;;;;;;0.80;0.77;;;20.20;20.30;;;;;;5093598;28;20158;-52
2021/03/21 09:27:30;;;;;;;1.00;0.80;;;20.20;20.30;;;;;;5093652;28;20217;-51
2021/03/21 09:29:57;;;;;;;0.90;0.90;;;20.20;20.30;;;;;;5092928;28;20707;-51
2021/03/21 09:32:28;;;;;;;1.15;0.95;;;20.20;20.30;;;;;;5093460;28;20166;-51
2021/03/21 09:35:08;;;;;;;0.90;0.90;;;20.20;20.30;;;;;;5092022;28;20165;-51
2021/03/21 09:37:39;;;;;;;0.88;0.82;;;20.20;20.20;;;;;;5093552;28;20161;-52
2021/03/21 09:40:38;;;;;;;0.95;0.88;;;20.20;20.20;;;;;;5092062;28;20162;-51
2021/03/21 09:43:11;;;;;;;1.08;0.93;;;20.20;20.20;;;;;;5093362;28;20158;-51
2021/03/21 09:45:50;;;;;;;0.75;0.73;;;20.20;20.10;;;;;;5092756;28;20154;-52
2021/03/21 09:48:26;;;;;;;1.30;1.20;;;20.20;20.10;;;;;;5093181;28;20174;-52
2021/03/21 09:50:52;;;;;;;1.00;0.80;;;20.20;20.10;;;;;;5092798;28;20232;-52
2021/03/21 09:53:38;;;;;;;1.53;0.80;;;20.20;20.10;;;;;;5093218;28;20184;-51
2021/03/21 09:56:28;;;;;;;1.10;0.90;;;20.20;20.10;;;;;;5092890;28;20161;-51
2021/03/21 09:59:26;;;;;;;1.27;1.00;;;20.20;20.10;;;;;;5092515;28;20240;-52
2021/03/21 10:02:01;;;;;;;1.08;0.98;;;20.20;20.10;;;;;;5093379;28;20570;-51
2021/03/21 10:04:52;;;;;;;1.98;1.00;;;20.20;20.10;;;;;;5092703;28;20165;-51
2021/03/21 10:07:40;;;;;;;0.90;0.80;;;20.20;20.00;;;;;;5093149;28;20187;-50
2021/03/21 10:10:13;;;;;;;1.08;0.98;;;20.30;20.10;;;;;;5092649;28;20189;-52
2021/03/21 10:12:43;;;;;;;0.80;0.70;;;20.20;20.00;;;;;;5093037;28;20150;-52
2021/03/21 10:15:18;;;;;;;0.95;0.90;;;20.30;20.00;;;;;;5092600;28;20150;-51
2021/03/21 10:17:46;;;;;;;1.00;0.82;;;20.30;20.00;;;;;;5095521;28;20150;-51
2021/03/21 10:20:14;;;;;;;1.02;0.95;;;20.30;20.00;;;;;;5096879;28;20149;-51
2021/03/21 10:22:42;;;;;;;0.80;0.80;;;20.30;20.00;;;;;;5096887;28;20680;-51
2021/03/21 10:25:12;;;;;;;1.02;0.95;;;20.30;20.00;;;;;;5096738;28;20623;-52
2021/03/21 10:27:49;;;;;;;1.50;1.00;;;20.30;20.00;;;;;;5097005;28;20232;-51
2021/03/21 10:30:30;;;;;;;0.90;0.77;;;20.30;19.90;;;;;;5096194;28;20192;-51
2021/03/21 10:33:02;;;;;;;1.02;0.90;;;20.30;19.90;;;;;;5096871;28;20210;-50
2021/03/21 10:35:30;;;;;;;0.80;0.80;;;20.30;19.90;;;;;;5096537;28;20154;-51
2021/03/21 10:38:03;;;;;;;2.03;1.08;;;20.30;19.80;;;;;;5096602;28;20146;-51
2021/03/21 10:40:29;;;;;;;1.20;1.10;;;20.30;19.80;;;;;;5096746;28;20148;-52
2021/03/21 10:42:59;;;;;;;0.93;0.80;;;20.30;19.90;;;;;;5096817;28;20229;-51
2021/03/21 10:45:30;;;;;;;1.20;0.90;;;20.40;19.90;;;;;;5096450;28;20237;-52
2021/03/21 10:47:57;;;;;;;1.38;0.93;;;20.40;19.90;;;;;;5096564;28;20620;-51
2021/03/21 10:50:31;;;;;;;1.77;1.10;;;20.40;19.90;;;;;;5096231;28;20200;-51
2021/03/21 10:53:18;;;;;;;1.42;0.88;;;20.40;19.90;;;;;;5096463;28;20535;-51
2021/03/21 10:56:06;;;;;;;1.00;0.90;;;20.40;19.90;;;;;;5096257;28;20149;-51
2021/03/21 10:58:44;;;;;;;1.30;1.20;;;20.40;19.90;;;;;;5096207;28;20512;-51
2021/03/21 11:01:19;;;;;;;1.10;0.90;;;20.40;19.90;;;;;;5095910;28;20589;-51
2021/03/21 11:04:06;;;;;;;1.10;1.00;;;20.40;19.90;;;;;;5094865;28;20169;-51
2021/03/21 11:06:35;;;;;;;1.00;0.98;;;20.40;19.90;;;;;;5096039;28;20236;-52
2021/03/21 11:09:12;;;;;;;1.08;1.00;;;20.40;19.90;;;;;;5093811;28;20204;-52
2021/03/21 11:11:40;;;;;;;1.50;1.23;;;20.40;19.80;;;;;;5096142;28;20156;-51
2021/03/21 11:14:17;;;;;;;1.10;1.00;;;21.50;20.60;;;;;;5095320;28;20565;-51
2021/03/21 11:16:55;;;;;;;1.20;1.15;;;20.40;19.80;;;;;;5096119;28;20236;-51
2021/03/21 11:19:23;;;;;;;1.38;1.27;;;20.40;19.80;;;;;;5095804;28;20205;-51
2021/03/21 11:21:49;;;;;;;0.90;0.77;;;20.40;19.80;;;;;;5096051;28;20180;-51
2021/03/21 11:24:23;;;;;;;1.20;1.00;;;20.40;19.80;;;;;;5095734;28;20162;-52
2021/03/21 11:26:51;;;;;;;1.25;1.08;;;20.40;19.80;;;;;;5095764;28;20251;-51
2021/03/21 11:29:41;;;;;;;1.15;1.05;;;20.40;19.80;;;;;;5095008;28;20193;-51
2021/03/21 11:32:18;;;;;;;1.25;1.10;;;20.40;19.80;;;;;;5095627;28;20150;-52
2021/03/21 11:34:55;;;;;;;1.40;1.30;;;20.40;19.80;;;;;;5095653;28;20146;-54
2021/03/21 11:37:26;;;;;;;2.08;1.20;;;20.40;19.80;;;;;;5094352;28;20169;-52
2021/03/21 11:40:13;;;;;;;1.20;1.10;;;20.40;19.80;;;;;;5095424;28;20158;-51
2021/03/21 11:42:41;;;;;;;1.30;1.10;;;20.40;19.80;;;;;;5095519;28;20150;-52
2021/03/21 11:45:18;;;;;;;2.40;1.30;;;20.40;19.80;;;;;;5094916;28;20203;-51
2021/03/21 11:47:55;;;;;;;1.25;1.15;;;20.50;19.80;;;;;;5095532;28;20158;-51
2021/03/21 11:50:30;;;;;;;1.60;1.33;;;20.40;19.80;;;;;;5095046;28;20213;-51
2021/03/21 11:52:58;;;;;;;1.30;1.20;;;20.40;19.80;;;;;;5095395;28;20646;-52
2021/03/21 11:55:31;;;;;;;1.65;1.08;;;20.40;19.80;;;;;;5094777;28;20150;-52
2021/03/21 11:58:05;;;;;;;1.20;1.08;;;20.40;19.80;;;;;;5095262;28;20150;-52
2021/03/21 12:00:35;;;;;;;2.40;1.50;;;20.40;19.80;;;;;;5094469;28;20156;-50
2021/03/21 12:03:19;;;;;;;1.42;1.33;;;20.40;19.80;;;;;;5093739;28;20180;-51
2021/03/21 12:05:57;;;;;;;1.25;1.15;;;20.40;19.80;;;;;;5094984;28;20146;-49
2021/03/21 12:08:35;;;;;;;1.30;1.20;;;20.40;19.80;;;;;;5094938;28;20185;-52
2021/03/21 12:11:17;;;;;;;1.52;1.00;;;20.40;19.80;;;;;;5093558;28;20191;-51
2021/03/21 12:13:43;;;;;;;1.25;1.10;;;20.40;19.80;;;;;;5094958;28;20181;-51
2021/03/21 12:16:38;;;;;;;1.50;1.40;;;20.50;19.90;;;;;;5094141;28;20554;-51
2021/03/21 12:19:11;;;;;;;1.33;1.10;;;20.40;19.80;;;;;;5093542;28;20822;-53
2021/03/21 12:21:38;;;;;;;1.50;1.13;;;20.50;19.90;;;;;;5094922;28;20606;-52
2021/03/21 12:24:10;;;;;;;1.27;1.17;;;20.50;19.90;;;;;;5094664;28;20203;-50
2021/03/21 12:26:44;;;;;;;1.80;1.15;;;20.40;19.80;;;;;;5092877;28;20262;-52
2021/03/21 12:29:34;;;;;;;2.03;1.40;;;20.40;19.80;;;;;;5077122;28;20247;-51
2021/03/21 12:32:26;;;;;;;1.20;1.10;;;20.50;19.90;;;;;;5073894;28;20159;-51
2021/03/21 12:34:53;;;;;;;1.50;1.40;;;20.50;20.40;;;;;;5074143;28;20196;-50
2021/03/21 12:38:02;;;;;;;1.27;1.17;;;20.50;19.80;;;;;;5073112;28;20217;-51
2021/03/21 12:40:30;;;;;;;1.38;1.27;;;20.50;19.80;;;;;;5065948;28;20533;-50
2021/03/21 12:42:56;;;;;;;1.88;1.38;;;20.50;19.80;;;;;;5074119;28;20166;-50
2021/03/21 12:45:27;;;;;;;1.30;1.20;;;20.50;19.80;;;;;;5073485;28;20151;-50
2021/03/21 12:47:56;;;;;;;1.05;0.98;;;20.50;19.80;;;;;;5073941;28;20169;-51
2021/03/21 12:50:24;;;;;;;1.20;1.10;;;20.50;19.80;;;;;;5072330;28;20225;-50
2021/03/21 12:52:51;;;;;;;3.13;0.98;;;20.50;19.80;;;;;;5074068;28;20159;-51
2021/03/21 12:55:18;;;;;;;1.90;1.30;;;20.50;19.80;;;;;;5072016;28;20158;-51
2021/03/21 12:57:44;;;;;;;1.27;1.13;;;20.50;19.80;;;;;;5073853;28;20234;-50
2021/03/21 13:00:17;;;;;;;1.77;1.53;;;20.50;19.80;;;;;;5073295;28;20316;-51
2021/03/21 13:02:43;;;;;;;1.55;1.42;;;20.50;19.80;;;;;;5089349;28;20451;-51
2021/03/21 13:05:25;;;;;;;1.20;1.10;;;20.50;19.70;;;;;;5075631;28;20220;-51
2021/03/21 13:07:50;;;;;;;2.38;1.10;;;20.50;19.80;;;;;;5094003;28;20502;-51
2021/03/21 13:10:17;;;;;;;1.20;1.10;;;20.50;19.80;;;;;;5093633;28;20668;-51
2021/03/21 13:12:43;;;;;;;1.70;1.60;;;20.50;19.70;;;;;;5094056;28;20178;-51
2021/03/21 13:15:10;;;;;;;0.93;0.93;;;20.50;19.70;;;;;;5093347;28;20154;-50
2021/03/21 13:17:37;;;;;;;1.13;1.00;;;20.50;19.70;;;;;;5093690;28;20153;-51
2021/03/21 13:20:08;;;;;;;1.40;1.30;;;20.60;19.80;;;;;;5093611;28;20165;-51
2021/03/21 13:22:34;;;;;;;1.30;1.20;;;20.50;19.70;;;;;;5093489;28;20146;-51
2021/03/21 13:25:00;;;;;;;1.50;1.38;;;20.50;19.70;;;;;;5093580;28;20158;-51
2021/03/21 13:27:26;;;;;;;1.33;1.20;;;20.60;19.80;;;;;;5092103;28;20296;-51
2021/03/21 13:29:53;;;;;;;1.37;1.27;;;20.50;19.70;;;;;;5092690;28;20349;-51
2021/03/21 13:32:19;;;;;;;1.67;1.25;;;20.60;19.80;;;;;;5092324;28;20158;-51
2021/03/21 13:34:45;;;;;;;1.65;1.55;;;20.50;19.70;;;;;;5093318;28;20158;-50
2021/03/21 13:37:11;;;;;;;1.30;1.10;;;20.50;19.70;;;;;;5093352;28;20162;-51
2021/03/21 13:39:37;;;;;;;5.00;2.00;;;20.60;19.80;;;;;;5093289;28;20412;-51
2021/03/21 13:42:04;;;;;;;1.40;1.30;;;20.60;19.80;;;;;;5093224;28;20495;-50